sensor_id;sensor_type;location;lat;lon;timestamp;P1;durP1;ratioP1;P2;durP2;ratioP2
3867;SDS011;1949;48.152;11.528;2024-02-21T00:01:06;3.33;;;1.30;;
3867;SDS011;1949;48.152;11.528;2024-02-21T00:03:32;5.90;;;1.10;;
3867;SDS011;1949;48.152;11.528;2024-02-21T00:05:58;5.63;;;1.50;;
3867;SDS011;1949;48.152;11.528;2024-02-21T00:08:24;5.47;;;1.43;;
3867;SDS011;1949;48.152;11.528;2024-02-21T00:10:51;4.10;;;1.33;;
3867;SDS011;1949;48.152;11.528;2024-02-21T00:13:16;4.47;;;1.40;;
3867;SDS011;1949;48.152;11.528;2024-02-21T00:15:42;4.00;;;1.20;;
3867;SDS011;1949;48.152;11.528;2024-02-21T00:18:09;3.97;;;1.40;;
3867;SDS011;1949;48.152;11.528;2024-02-21T00:20:36;6.33;;;1.80;;
3867;SDS011;1949;48.152;11.528;2024-02-21T00:23:02;2.43;;;1.50;;
3867;SDS011;1949;48.152;11.528;2024-02-21T00:25:27;3.30;;;1.43;;
3867;SDS011;1949;48.152;11.528;2024-02-21T00:27:53;3.90;;;1.47;;
3867;SDS011;1949;48.152;11.528;2024-02-21T00:30:19;5.07;;;1.57;;
3867;SDS011;1949;48.152;11.528;2024-02-21T00:32:44;3.13;;;1.47;;
3867;SDS011;1949;48.152;11.528;2024-02-21T00:35:10;2.60;;;1.47;;
3867;SDS011;1949;48.152;11.528;2024-02-21T00:37:37;2.10;;;1.40;;
3867;SDS011;1949;48.152;11.528;2024-02-21T00:40:03;3.80;;;1.60;;
3867;SDS011;1949;48.152;11.528;2024-02-21T00:42:31;11.10;;;1.50;;
3867;SDS011;1949;48.152;11.528;2024-02-21T00:44:57;9.33;;;2.33;;
3867;SDS011;1949;48.152;11.528;2024-02-21T00:47:23;6.37;;;2.10;;
3867;SDS011;1949;48.152;11.528;2024-02-21T00:49:49;5.70;;;1.30;;
3867;SDS011;1949;48.152;11.528;2024-02-21T00:52:15;2.33;;;1.13;;
3867;SDS011;1949;48.152;11.528;2024-02-21T00:54:41;3.90;;;1.47;;
3867;SDS011;1949;48.152;11.528;2024-02-21T00:57:06;3.17;;;1.47;;
3867;SDS011;1949;48.152;11.528;2024-02-21T00:59:32;1.23;;;1.00;;
3867;SDS011;1949;48.152;11.528;2024-02-21T01:01:58;4.77;;;1.57;;
3867;SDS011;1949;48.152;11.528;2024-02-21T01:04:24;5.63;;;3.13;;
3867;SDS011;1949;48.152;11.528;2024-02-21T01:06:50;1.57;;;1.30;;
3867;SDS011;1949;48.152;11.528;2024-02-21T01:09:16;1.87;;;1.33;;
3867;SDS011;1949;48.152;11.528;2024-02-21T01:11:43;2.90;;;1.67;;
3867;SDS011;1949;48.152;11.528;2024-02-21T01:14:09;2.30;;;1.60;;
3867;SDS011;1949;48.152;11.528;2024-02-21T01:16:36;9.80;;;2.40;;
3867;SDS011;1949;48.152;11.528;2024-02-21T01:19:02;8.70;;;1.70;;
3867;SDS011;1949;48.152;11.528;2024-02-21T01:21:27;4.70;;;1.47;;
3867;SDS011;1949;48.152;11.528;2024-02-21T01:23:55;3.17;;;1.30;;
3867;SDS011;1949;48.152;11.528;2024-02-21T01:26:21;3.20;;;1.23;;
3867;SDS011;1949;48.152;11.528;2024-02-21T01:28:47;2.50;;;1.33;;
3867;SDS011;1949;48.152;11.528;2024-02-21T01:31:12;2.50;;;1.23;;
3867;SDS011;1949;48.152;11.528;2024-02-21T01:33:40;2.17;;;1.33;;
3867;SDS011;1949;48.152;11.528;2024-02-21T01:36:06;1.50;;;1.10;;
3867;SDS011;1949;48.152;11.528;2024-02-21T01:38:32;2.97;;;1.57;;
3867;SDS011;1949;48.152;11.528;2024-02-21T01:40:59;3.93;;;1.20;;
3867;SDS011;1949;48.152;11.528;2024-02-21T01:43:25;2.63;;;1.40;;
3867;SDS011;1949;48.152;11.528;2024-02-21T01:45:52;8.00;;;1.20;;
3867;SDS011;1949;48.152;11.528;2024-02-21T01:48:20;8.70;;;1.60;;
3867;SDS011;1949;48.152;11.528;2024-02-21T01:50:50;4.83;;;1.17;;
3867;SDS011;1949;48.152;11.528;2024-02-21T01:53:18;3.63;;;1.00;;
3867;SDS011;1949;48.152;11.528;2024-02-21T01:55:46;1.10;;;0.90;;
3867;SDS011;1949;48.152;11.528;2024-02-21T01:58:13;2.47;;;1.07;;
3867;SDS011;1949;48.152;11.528;2024-02-21T02:00:44;4.93;;;0.90;;
3867;SDS011;1949;48.152;11.528;2024-02-21T02:03:11;4.27;;;1.20;;
3867;SDS011;1949;48.152;11.528;2024-02-21T02:05:48;3.57;;;1.30;;
3867;SDS011;1949;48.152;11.528;2024-02-21T02:08:15;1.60;;;1.10;;
3867;SDS011;1949;48.152;11.528;2024-02-21T02:10:42;2.63;;;1.03;;
3867;SDS011;1949;48.152;11.528;2024-02-21T02:13:08;1.97;;;1.30;;
3867;SDS011;1949;48.152;11.528;2024-02-21T02:15:38;3.20;;;1.20;;
3867;SDS011;1949;48.152;11.528;2024-02-21T02:18:08;2.93;;;1.23;;
3867;SDS011;1949;48.152;11.528;2024-02-21T02:20:35;4.50;;;1.27;;
3867;SDS011;1949;48.152;11.528;2024-02-21T02:23:04;2.90;;;1.00;;
3867;SDS011;1949;48.152;11.528;2024-02-21T02:25:36;1.10;;;1.00;;
3867;SDS011;1949;48.152;11.528;2024-02-21T02:28:06;1.33;;;1.10;;
3867;SDS011;1949;48.152;11.528;2024-02-21T02:30:33;4.43;;;0.90;;
3867;SDS011;1949;48.152;11.528;2024-02-21T02:33:08;2.13;;;1.17;;
3867;SDS011;1949;48.152;11.528;2024-02-21T02:35:34;4.33;;;1.70;;
3867;SDS011;1949;48.152;11.528;2024-02-21T02:38:02;2.70;;;1.20;;
3867;SDS011;1949;48.152;11.528;2024-02-21T02:40:29;3.73;;;1.20;;
3867;SDS011;1949;48.152;11.528;2024-02-21T02:42:55;3.43;;;1.13;;
3867;SDS011;1949;48.152;11.528;2024-02-21T02:45:21;3.63;;;1.20;;
3867;SDS011;1949;48.152;11.528;2024-02-21T02:47:54;1.70;;;1.10;;
3867;SDS011;1949;48.152;11.528;2024-02-21T02:50:21;3.77;;;0.80;;
3867;SDS011;1949;48.152;11.528;2024-02-21T02:52:51;1.87;;;1.00;;
3867;SDS011;1949;48.152;11.528;2024-02-21T02:55:17;2.40;;;1.00;;
3867;SDS011;1949;48.152;11.528;2024-02-21T02:57:43;4.80;;;1.10;;
3867;SDS011;1949;48.152;11.528;2024-02-21T03:00:12;1.30;;;0.90;;
3867;SDS011;1949;48.152;11.528;2024-02-21T03:02:41;4.47;;;1.23;;
3867;SDS011;1949;48.152;11.528;2024-02-21T03:05:15;1.27;;;1.00;;
3867;SDS011;1949;48.152;11.528;2024-02-21T03:07:42;3.00;;;0.80;;
3867;SDS011;1949;48.152;11.528;2024-02-21T03:10:09;1.30;;;0.97;;
3867;SDS011;1949;48.152;11.528;2024-02-21T03:12:35;2.63;;;1.20;;
3867;SDS011;1949;48.152;11.528;2024-02-21T03:15:02;1.00;;;0.90;;
3867;SDS011;1949;48.152;11.528;2024-02-21T03:17:28;1.47;;;0.80;;
3867;SDS011;1949;48.152;11.528;2024-02-21T03:19:54;2.53;;;1.20;;
3867;SDS011;1949;48.152;11.528;2024-02-21T03:22:20;4.00;;;1.13;;
3867;SDS011;1949;48.152;11.528;2024-02-21T03:24:47;0.80;;;0.70;;
3867;SDS011;1949;48.152;11.528;2024-02-21T03:27:12;1.03;;;0.93;;
3867;SDS011;1949;48.152;11.528;2024-02-21T03:29:38;0.90;;;0.80;;
3867;SDS011;1949;48.152;11.528;2024-02-21T03:32:04;1.73;;;0.80;;
3867;SDS011;1949;48.152;11.528;2024-02-21T03:34:30;3.20;;;1.03;;
3867;SDS011;1949;48.152;11.528;2024-02-21T03:36:56;1.97;;;0.83;;
3867;SDS011;1949;48.152;11.528;2024-02-21T03:39:21;0.97;;;0.90;;
3867;SDS011;1949;48.152;11.528;2024-02-21T03:41:47;1.77;;;1.10;;
3867;SDS011;1949;48.152;11.528;2024-02-21T03:44:13;2.10;;;0.80;;
3867;SDS011;1949;48.152;11.528;2024-02-21T03:46:38;6.80;;;0.93;;
3867;SDS011;1949;48.152;11.528;2024-02-21T03:49:04;1.73;;;0.83;;
3867;SDS011;1949;48.152;11.528;2024-02-21T03:51:30;1.30;;;0.80;;
3867;SDS011;1949;48.152;11.528;2024-02-21T03:53:56;2.90;;;1.13;;
3867;SDS011;1949;48.152;11.528;2024-02-21T03:56:22;8.83;;;2.40;;
3867;SDS011;1949;48.152;11.528;2024-02-21T03:58:47;2.00;;;1.00;;
3867;SDS011;1949;48.152;11.528;2024-02-21T04:01:14;1.30;;;0.80;;
3867;SDS011;1949;48.152;11.528;2024-02-21T04:03:43;3.40;;;1.03;;
3867;SDS011;1949;48.152;11.528;2024-02-21T04:06:09;5.23;;;1.00;;
3867;SDS011;1949;48.152;11.528;2024-02-21T04:08:35;1.37;;;0.83;;
3867;SDS011;1949;48.152;11.528;2024-02-21T04:11:01;1.13;;;0.80;;
3867;SDS011;1949;48.152;11.528;2024-02-21T04:13:27;1.93;;;1.10;;
3867;SDS011;1949;48.152;11.528;2024-02-21T04:15:53;5.87;;;1.07;;
3867;SDS011;1949;48.152;11.528;2024-02-21T04:18:18;1.63;;;1.10;;
3867;SDS011;1949;48.152;11.528;2024-02-21T04:20:44;1.73;;;0.80;;
3867;SDS011;1949;48.152;11.528;2024-02-21T04:23:10;1.20;;;0.93;;
3867;SDS011;1949;48.152;11.528;2024-02-21T04:25:36;1.47;;;1.03;;
3867;SDS011;1949;48.152;11.528;2024-02-21T04:28:02;2.27;;;1.10;;
3867;SDS011;1949;48.152;11.528;2024-02-21T04:30:28;4.20;;;0.80;;
3867;SDS011;1949;48.152;11.528;2024-02-21T04:32:59;0.90;;;0.80;;
3867;SDS011;1949;48.152;11.528;2024-02-21T04:35:25;7.57;;;1.63;;
3867;SDS011;1949;48.152;11.528;2024-02-21T04:37:53;2.30;;;0.90;;
3867;SDS011;1949;48.152;11.528;2024-02-21T04:40:19;1.63;;;0.80;;
3867;SDS011;1949;48.152;11.528;2024-02-21T04:42:44;0.80;;;0.80;;
3867;SDS011;1949;48.152;11.528;2024-02-21T04:45:11;2.17;;;0.97;;
3867;SDS011;1949;48.152;11.528;2024-02-21T04:47:37;2.40;;;1.20;;
3867;SDS011;1949;48.152;11.528;2024-02-21T04:50:04;1.87;;;0.90;;
3867;SDS011;1949;48.152;11.528;2024-02-21T04:52:30;1.77;;;0.70;;
3867;SDS011;1949;48.152;11.528;2024-02-21T04:54:55;6.53;;;1.10;;
3867;SDS011;1949;48.152;11.528;2024-02-21T04:57:21;0.97;;;0.87;;
3867;SDS011;1949;48.152;11.528;2024-02-21T04:59:47;2.40;;;0.80;;
3867;SDS011;1949;48.152;11.528;2024-02-21T05:02:13;1.30;;;0.97;;
3867;SDS011;1949;48.152;11.528;2024-02-21T05:04:39;13.50;;;1.90;;
3867;SDS011;1949;48.152;11.528;2024-02-21T05:07:07;2.50;;;0.73;;
3867;SDS011;1949;48.152;11.528;2024-02-21T05:09:33;1.23;;;0.67;;
3867;SDS011;1949;48.152;11.528;2024-02-21T05:11:59;1.73;;;1.10;;
3867;SDS011;1949;48.152;11.528;2024-02-21T05:14:25;16.93;;;1.17;;
3867;SDS011;1949;48.152;11.528;2024-02-21T05:16:52;0.90;;;0.80;;
3867;SDS011;1949;48.152;11.528;2024-02-21T05:19:19;1.30;;;0.93;;
3867;SDS011;1949;48.152;11.528;2024-02-21T05:21:45;2.30;;;0.97;;
3867;SDS011;1949;48.152;11.528;2024-02-21T05:24:10;0.90;;;0.70;;
3867;SDS011;1949;48.152;11.528;2024-02-21T05:26:36;2.77;;;1.00;;
3867;SDS011;1949;48.152;11.528;2024-02-21T05:29:02;3.87;;;1.40;;
3867;SDS011;1949;48.152;11.528;2024-02-21T05:34:32;1.10;;;0.70;;
3867;SDS011;1949;48.152;11.528;2024-02-21T05:37:00;0.90;;;0.60;;
3867;SDS011;1949;48.152;11.528;2024-02-21T05:39:26;2.70;;;0.80;;
3867;SDS011;1949;48.152;11.528;2024-02-21T05:41:52;1.73;;;0.80;;
3867;SDS011;1949;48.152;11.528;2024-02-21T05:44:18;1.20;;;0.90;;
3867;SDS011;1949;48.152;11.528;2024-02-21T05:46:44;3.37;;;1.40;;
3867;SDS011;1949;48.152;11.528;2024-02-21T05:49:10;3.50;;;1.03;;
3867;SDS011;1949;48.152;11.528;2024-02-21T05:51:36;1.50;;;0.80;;
3867;SDS011;1949;48.152;11.528;2024-02-21T05:56:43;3.03;;;1.40;;
3867;SDS011;1949;48.152;11.528;2024-02-21T05:59:09;2.90;;;0.90;;
3867;SDS011;1949;48.152;11.528;2024-02-21T06:01:36;5.20;;;2.30;;
3867;SDS011;1949;48.152;11.528;2024-02-21T06:04:02;1.83;;;1.00;;
3867;SDS011;1949;48.152;11.528;2024-02-21T06:06:29;1.20;;;1.10;;
3867;SDS011;1949;48.152;11.528;2024-02-21T06:08:55;1.17;;;0.80;;
3867;SDS011;1949;48.152;11.528;2024-02-21T06:11:21;1.70;;;1.10;;
3867;SDS011;1949;48.152;11.528;2024-02-21T06:13:49;11.90;;;4.37;;
3867;SDS011;1949;48.152;11.528;2024-02-21T06:16:18;2.83;;;1.77;;
3867;SDS011;1949;48.152;11.528;2024-02-21T06:18:47;2.00;;;1.60;;
3867;SDS011;1949;48.152;11.528;2024-02-21T06:21:12;2.23;;;1.40;;
3867;SDS011;1949;48.152;11.528;2024-02-21T06:23:38;14.37;;;1.77;;
3867;SDS011;1949;48.152;11.528;2024-02-21T06:28:34;1.70;;;1.10;;
3867;SDS011;1949;48.152;11.528;2024-02-21T06:31:00;1.70;;;1.37;;
3867;SDS011;1949;48.152;11.528;2024-02-21T06:33:25;3.60;;;2.10;;
3867;SDS011;1949;48.152;11.528;2024-02-21T06:35:51;3.80;;;1.90;;
3867;SDS011;1949;48.152;11.528;2024-02-21T06:38:20;5.53;;;1.60;;
3867;SDS011;1949;48.152;11.528;2024-02-21T06:40:46;3.70;;;1.77;;
3867;SDS011;1949;48.152;11.528;2024-02-21T06:43:16;1.97;;;0.90;;
3867;SDS011;1949;48.152;11.528;2024-02-21T06:45:46;1.30;;;1.20;;
3867;SDS011;1949;48.152;11.528;2024-02-21T06:48:15;2.23;;;1.03;;
3867;SDS011;1949;48.152;11.528;2024-02-21T06:50:41;3.00;;;1.10;;
3867;SDS011;1949;48.152;11.528;2024-02-21T06:53:08;5.00;;;1.70;;
3867;SDS011;1949;48.152;11.528;2024-02-21T06:58:02;1.50;;;1.00;;
3867;SDS011;1949;48.152;11.528;2024-02-21T07:02:58;5.47;;;2.60;;
3867;SDS011;1949;48.152;11.528;2024-02-21T07:05:24;1.70;;;1.17;;
3867;SDS011;1949;48.152;11.528;2024-02-21T07:07:50;3.87;;;1.83;;
3867;SDS011;1949;48.152;11.528;2024-02-21T07:10:15;6.13;;;2.20;;
3867;SDS011;1949;48.152;11.528;2024-02-21T07:12:43;1.20;;;1.00;;
3867;SDS011;1949;48.152;11.528;2024-02-21T07:15:10;11.00;;;4.97;;
3867;SDS011;1949;48.152;11.528;2024-02-21T07:20:08;2.33;;;1.20;;
3867;SDS011;1949;48.152;11.528;2024-02-21T07:25:04;1.70;;;1.33;;
3867;SDS011;1949;48.152;11.528;2024-02-21T07:27:30;9.20;;;3.70;;
3867;SDS011;1949;48.152;11.528;2024-02-21T07:29:59;5.40;;;2.50;;
3867;SDS011;1949;48.152;11.528;2024-02-21T07:32:31;12.03;;;5.23;;
3867;SDS011;1949;48.152;11.528;2024-02-21T07:34:56;3.17;;;1.37;;
3867;SDS011;1949;48.152;11.528;2024-02-21T07:37:24;17.00;;;7.17;;
3867;SDS011;1949;48.152;11.528;2024-02-21T07:39:50;7.00;;;2.03;;
3867;SDS011;1949;48.152;11.528;2024-02-21T07:42:16;6.23;;;2.10;;
3867;SDS011;1949;48.152;11.528;2024-02-21T07:44:42;5.37;;;2.87;;
3867;SDS011;1949;48.152;11.528;2024-02-21T07:47:08;4.17;;;2.33;;
3867;SDS011;1949;48.152;11.528;2024-02-21T07:49:40;15.87;;;5.60;;
3867;SDS011;1949;48.152;11.528;2024-02-21T07:52:08;1.80;;;1.10;;
3867;SDS011;1949;48.152;11.528;2024-02-21T07:54:34;19.27;;;6.77;;
3867;SDS011;1949;48.152;11.528;2024-02-21T07:57:01;5.80;;;2.60;;
3867;SDS011;1949;48.152;11.528;2024-02-21T07:59:28;5.23;;;1.60;;
3867;SDS011;1949;48.152;11.528;2024-02-21T08:01:57;4.00;;;1.77;;
3867;SDS011;1949;48.152;11.528;2024-02-21T08:04:24;3.00;;;1.53;;
3867;SDS011;1949;48.152;11.528;2024-02-21T08:06:55;6.67;;;3.30;;
3867;SDS011;1949;48.152;11.528;2024-02-21T08:09:24;6.47;;;2.30;;
3867;SDS011;1949;48.152;11.528;2024-02-21T08:11:50;8.77;;;3.70;;
3867;SDS011;1949;48.152;11.528;2024-02-21T08:14:15;3.90;;;1.30;;
3867;SDS011;1949;48.152;11.528;2024-02-21T08:16:47;10.00;;;4.90;;
3867;SDS011;1949;48.152;11.528;2024-02-21T08:19:15;9.97;;;3.57;;
3867;SDS011;1949;48.152;11.528;2024-02-21T08:21:42;14.80;;;6.37;;
3867;SDS011;1949;48.152;11.528;2024-02-21T08:24:08;6.40;;;3.40;;
3867;SDS011;1949;48.152;11.528;2024-02-21T08:26:33;2.93;;;1.93;;
3867;SDS011;1949;48.152;11.528;2024-02-21T08:29:01;9.90;;;4.60;;
3867;SDS011;1949;48.152;11.528;2024-02-21T08:31:27;4.67;;;2.23;;
3867;SDS011;1949;48.152;11.528;2024-02-21T08:34:00;11.00;;;4.90;;
3867;SDS011;1949;48.152;11.528;2024-02-21T08:36:30;25.20;;;10.03;;
3867;SDS011;1949;48.152;11.528;2024-02-21T08:38:57;11.40;;;5.00;;
3867;SDS011;1949;48.152;11.528;2024-02-21T08:41:23;14.47;;;5.33;;
3867;SDS011;1949;48.152;11.528;2024-02-21T08:43:53;20.73;;;7.80;;
3867;SDS011;1949;48.152;11.528;2024-02-21T08:46:19;11.97;;;4.67;;
3867;SDS011;1949;48.152;11.528;2024-02-21T08:48:46;4.90;;;2.73;;
3867;SDS011;1949;48.152;11.528;2024-02-21T08:51:13;4.80;;;2.27;;
3867;SDS011;1949;48.152;11.528;2024-02-21T08:53:39;9.00;;;1.97;;
3867;SDS011;1949;48.152;11.528;2024-02-21T08:56:05;8.47;;;3.30;;
3867;SDS011;1949;48.152;11.528;2024-02-21T08:58:32;11.50;;;4.57;;
3867;SDS011;1949;48.152;11.528;2024-02-21T09:00:58;6.10;;;2.67;;
3867;SDS011;1949;48.152;11.528;2024-02-21T09:03:24;3.43;;;1.10;;
3867;SDS011;1949;48.152;11.528;2024-02-21T09:05:50;19.53;;;1.60;;
3867;SDS011;1949;48.152;11.528;2024-02-21T09:08:16;6.03;;;2.53;;
3867;SDS011;1949;48.152;11.528;2024-02-21T09:10:41;4.47;;;2.40;;
3867;SDS011;1949;48.152;11.528;2024-02-21T09:13:07;8.03;;;1.90;;
3867;SDS011;1949;48.152;11.528;2024-02-21T09:15:34;4.63;;;1.80;;
3867;SDS011;1949;48.152;11.528;2024-02-21T09:17:59;4.73;;;2.27;;
3867;SDS011;1949;48.152;11.528;2024-02-21T09:20:25;1.00;;;0.90;;
3867;SDS011;1949;48.152;11.528;2024-02-21T09:22:51;21.20;;;3.77;;
3867;SDS011;1949;48.152;11.528;2024-02-21T09:27:48;134.77;;;23.67;;
3867;SDS011;1949;48.152;11.528;2024-02-21T09:30:14;91.77;;;15.30;;
3867;SDS011;1949;48.152;11.528;2024-02-21T09:32:42;63.57;;;8.07;;
3867;SDS011;1949;48.152;11.528;2024-02-21T09:35:07;11.17;;;1.93;;
3867;SDS011;1949;48.152;11.528;2024-02-21T09:37:33;9.60;;;2.93;;
3867;SDS011;1949;48.152;11.528;2024-02-21T09:39:59;6.70;;;1.63;;
3867;SDS011;1949;48.152;11.528;2024-02-21T09:42:27;2.77;;;1.60;;
3867;SDS011;1949;48.152;11.528;2024-02-21T09:45:06;18.33;;;5.60;;
3867;SDS011;1949;48.152;11.528;2024-02-21T09:47:50;9.30;;;4.33;;
3867;SDS011;1949;48.152;11.528;2024-02-21T09:50:27;21.97;;;6.93;;
3867;SDS011;1949;48.152;11.528;2024-02-21T09:52:57;35.27;;;12.37;;
3867;SDS011;1949;48.152;11.528;2024-02-21T09:55:27;23.83;;;9.70;;
3867;SDS011;1949;48.152;11.528;2024-02-21T09:57:54;35.17;;;12.30;;
3867;SDS011;1949;48.152;11.528;2024-02-21T10:00:21;12.80;;;5.43;;
3867;SDS011;1949;48.152;11.528;2024-02-21T10:02:48;20.27;;;6.87;;
3867;SDS011;1949;48.152;11.528;2024-02-21T10:05:17;15.80;;;7.60;;
3867;SDS011;1949;48.152;11.528;2024-02-21T10:07:43;33.43;;;13.30;;
3867;SDS011;1949;48.152;11.528;2024-02-21T10:10:09;11.37;;;6.00;;
3867;SDS011;1949;48.152;11.528;2024-02-21T10:12:47;26.10;;;11.40;;
3867;SDS011;1949;48.152;11.528;2024-02-21T10:15:19;21.13;;;7.30;;
3867;SDS011;1949;48.152;11.528;2024-02-21T10:17:49;8.10;;;3.47;;
3867;SDS011;1949;48.152;11.528;2024-02-21T10:20:22;1.93;;;1.20;;
3867;SDS011;1949;48.152;11.528;2024-02-21T10:22:48;4.07;;;1.50;;
3867;SDS011;1949;48.152;11.528;2024-02-21T10:25:15;12.13;;;2.63;;
3867;SDS011;1949;48.152;11.528;2024-02-21T10:27:43;1.30;;;0.90;;
3867;SDS011;1949;48.152;11.528;2024-02-21T10:30:12;2.90;;;1.70;;
3867;SDS011;1949;48.152;11.528;2024-02-21T10:32:52;2.07;;;1.00;;
3867;SDS011;1949;48.152;11.528;2024-02-21T10:35:52;7.70;;;4.13;;
3867;SDS011;1949;48.152;11.528;2024-02-21T10:38:11;2.53;;;1.50;;
3867;SDS011;1949;48.152;11.528;2024-02-21T10:40:38;2.30;;;1.50;;
3867;SDS011;1949;48.152;11.528;2024-02-21T10:43:03;3.90;;;1.73;;
3867;SDS011;1949;48.152;11.528;2024-02-21T10:45:36;2.77;;;1.90;;
3867;SDS011;1949;48.152;11.528;2024-02-21T10:51:19;2.70;;;1.10;;
3867;SDS011;1949;48.152;11.528;2024-02-21T10:56:33;3.47;;;1.87;;
3867;SDS011;1949;48.152;11.528;2024-02-21T10:59:03;1.67;;;1.07;;
3867;SDS011;1949;48.152;11.528;2024-02-21T11:01:30;7.23;;;3.57;;
3867;SDS011;1949;48.152;11.528;2024-02-21T11:04:10;9.50;;;2.20;;
3867;SDS011;1949;48.152;11.528;2024-02-21T11:06:37;2.67;;;1.87;;
3867;SDS011;1949;48.152;11.528;2024-02-21T11:09:07;5.67;;;2.13;;
3867;SDS011;1949;48.152;11.528;2024-02-21T11:11:34;4.80;;;2.50;;
3867;SDS011;1949;48.152;11.528;2024-02-21T11:14:05;5.37;;;2.10;;
3867;SDS011;1949;48.152;11.528;2024-02-21T11:16:41;7.07;;;3.73;;
3867;SDS011;1949;48.152;11.528;2024-02-21T11:21:54;3.97;;;1.60;;
3867;SDS011;1949;48.152;11.528;2024-02-21T11:24:27;2.80;;;1.40;;
3867;SDS011;1949;48.152;11.528;2024-02-21T11:27:45;3.80;;;1.20;;
3867;SDS011;1949;48.152;11.528;2024-02-21T11:29:55;4.33;;;1.33;;
3867;SDS011;1949;48.152;11.528;2024-02-21T11:32:23;5.53;;;3.13;;
3867;SDS011;1949;48.152;11.528;2024-02-21T11:34:57;1.70;;;0.80;;
3867;SDS011;1949;48.152;11.528;2024-02-21T11:37:31;1.00;;;0.70;;
3867;SDS011;1949;48.152;11.528;2024-02-21T11:40:02;1.10;;;0.80;;
3867;SDS011;1949;48.152;11.528;2024-02-21T11:42:28;2.23;;;1.10;;
3867;SDS011;1949;48.152;11.528;2024-02-21T11:44:59;4.63;;;1.03;;
3867;SDS011;1949;48.152;11.528;2024-02-21T11:47:28;3.30;;;0.90;;
3867;SDS011;1949;48.152;11.528;2024-02-21T11:49:55;1.50;;;0.90;;
3867;SDS011;1949;48.152;11.528;2024-02-21T11:52:21;3.17;;;1.53;;
3867;SDS011;1949;48.152;11.528;2024-02-21T11:54:50;1.07;;;0.93;;
3867;SDS011;1949;48.152;11.528;2024-02-21T11:57:19;4.97;;;2.20;;
3867;SDS011;1949;48.152;11.528;2024-02-21T11:59:45;1.73;;;1.20;;
3867;SDS011;1949;48.152;11.528;2024-02-21T12:02:16;6.13;;;1.30;;
3867;SDS011;1949;48.152;11.528;2024-02-21T12:04:43;8.13;;;1.60;;
3867;SDS011;1949;48.152;11.528;2024-02-21T12:07:09;2.07;;;1.20;;
3867;SDS011;1949;48.152;11.528;2024-02-21T12:09:35;3.10;;;1.30;;
3867;SDS011;1949;48.152;11.528;2024-02-21T12:12:10;5.60;;;0.90;;
3867;SDS011;1949;48.152;11.528;2024-02-21T12:14:39;1.97;;;1.20;;
3867;SDS011;1949;48.152;11.528;2024-02-21T12:17:06;2.63;;;0.83;;
3867;SDS011;1949;48.152;11.528;2024-02-21T12:19:32;7.13;;;3.20;;
3867;SDS011;1949;48.152;11.528;2024-02-21T12:22:01;1.53;;;0.93;;
3867;SDS011;1949;48.152;11.528;2024-02-21T12:24:30;3.00;;;0.90;;
3867;SDS011;1949;48.152;11.528;2024-02-21T12:26:56;2.93;;;1.20;;
3867;SDS011;1949;48.152;11.528;2024-02-21T12:29:24;1.87;;;1.30;;
3867;SDS011;1949;48.152;11.528;2024-02-21T12:31:52;1.90;;;1.27;;
3867;SDS011;1949;48.152;11.528;2024-02-21T12:34:23;3.10;;;1.53;;
3867;SDS011;1949;48.152;11.528;2024-02-21T12:36:50;2.17;;;1.27;;
3867;SDS011;1949;48.152;11.528;2024-02-21T12:39:17;3.63;;;0.90;;
3867;SDS011;1949;48.152;11.528;2024-02-21T12:41:42;1.83;;;0.87;;
3867;SDS011;1949;48.152;11.528;2024-02-21T12:44:09;7.40;;;1.17;;
3867;SDS011;1949;48.152;11.528;2024-02-21T12:46:36;2.80;;;1.30;;
3867;SDS011;1949;48.152;11.528;2024-02-21T12:49:03;1.10;;;0.80;;
3867;SDS011;1949;48.152;11.528;2024-02-21T12:51:31;2.33;;;1.23;;
3867;SDS011;1949;48.152;11.528;2024-02-21T12:53:59;0.90;;;0.70;;
3867;SDS011;1949;48.152;11.528;2024-02-21T12:56:25;3.03;;;1.10;;
3867;SDS011;1949;48.152;11.528;2024-02-21T12:58:54;3.50;;;2.00;;
3867;SDS011;1949;48.152;11.528;2024-02-21T13:01:21;6.23;;;3.60;;
3867;SDS011;1949;48.152;11.528;2024-02-21T13:03:46;9.83;;;1.00;;
3867;SDS011;1949;48.152;11.528;2024-02-21T13:06:12;3.40;;;1.80;;
3867;SDS011;1949;48.152;11.528;2024-02-21T13:08:38;2.70;;;0.93;;
3867;SDS011;1949;48.152;11.528;2024-02-21T13:11:05;0.70;;;0.60;;
3867;SDS011;1949;48.152;11.528;2024-02-21T13:13:31;1.87;;;0.90;;
3867;SDS011;1949;48.152;11.528;2024-02-21T13:15:58;3.90;;;1.70;;
3867;SDS011;1949;48.152;11.528;2024-02-21T13:18:24;4.50;;;1.00;;
3867;SDS011;1949;48.152;11.528;2024-02-21T13:20:51;3.40;;;0.80;;
3867;SDS011;1949;48.152;11.528;2024-02-21T13:23:17;1.43;;;0.80;;
3867;SDS011;1949;48.152;11.528;2024-02-21T13:25:43;0.80;;;0.70;;
3867;SDS011;1949;48.152;11.528;2024-02-21T13:28:14;1.63;;;0.93;;
3867;SDS011;1949;48.152;11.528;2024-02-21T13:30:42;2.40;;;1.10;;
3867;SDS011;1949;48.152;11.528;2024-02-21T13:33:08;2.07;;;0.80;;
3867;SDS011;1949;48.152;11.528;2024-02-21T13:35:35;0.70;;;0.60;;
3867;SDS011;1949;48.152;11.528;2024-02-21T13:38:02;1.90;;;1.40;;
3867;SDS011;1949;48.152;11.528;2024-02-21T13:40:28;1.80;;;1.30;;
3867;SDS011;1949;48.152;11.528;2024-02-21T13:42:54;1.53;;;0.90;;
3867;SDS011;1949;48.152;11.528;2024-02-21T13:45:20;1.00;;;0.70;;
3867;SDS011;1949;48.152;11.528;2024-02-21T13:47:47;0.60;;;0.50;;
3867;SDS011;1949;48.152;11.528;2024-02-21T13:50:14;2.23;;;1.33;;
3867;SDS011;1949;48.152;11.528;2024-02-21T13:52:40;2.13;;;1.57;;
3867;SDS011;1949;48.152;11.528;2024-02-21T13:55:06;14.73;;;0.80;;
3867;SDS011;1949;48.152;11.528;2024-02-21T13:57:35;1.50;;;0.80;;
3867;SDS011;1949;48.152;11.528;2024-02-21T14:00:02;1.20;;;0.73;;
3867;SDS011;1949;48.152;11.528;2024-02-21T14:02:33;0.93;;;0.60;;
3867;SDS011;1949;48.152;11.528;2024-02-21T14:07:32;2.00;;;0.90;;
3867;SDS011;1949;48.152;11.528;2024-02-21T14:10:01;2.30;;;1.00;;
3867;SDS011;1949;48.152;11.528;2024-02-21T14:12:28;1.73;;;0.70;;
3867;SDS011;1949;48.152;11.528;2024-02-21T14:14:56;0.77;;;0.60;;
3867;SDS011;1949;48.152;11.528;2024-02-21T14:17:23;1.30;;;1.10;;
3867;SDS011;1949;48.152;11.528;2024-02-21T14:19:51;1.10;;;0.70;;
3867;SDS011;1949;48.152;11.528;2024-02-21T14:22:17;1.83;;;0.90;;
3867;SDS011;1949;48.152;11.528;2024-02-21T14:24:43;0.80;;;0.60;;
3867;SDS011;1949;48.152;11.528;2024-02-21T14:27:10;1.47;;;0.90;;
3867;SDS011;1949;48.152;11.528;2024-02-21T14:29:35;7.57;;;1.60;;
3867;SDS011;1949;48.152;11.528;2024-02-21T14:32:02;1.20;;;0.70;;
3867;SDS011;1949;48.152;11.528;2024-02-21T14:34:28;2.60;;;0.80;;
3867;SDS011;1949;48.152;11.528;2024-02-21T14:36:54;8.30;;;1.00;;
3867;SDS011;1949;48.152;11.528;2024-02-21T14:39:20;6.03;;;2.43;;
3867;SDS011;1949;48.152;11.528;2024-02-21T14:41:45;8.43;;;4.40;;
3867;SDS011;1949;48.152;11.528;2024-02-21T14:44:11;14.90;;;7.47;;
3867;SDS011;1949;48.152;11.528;2024-02-21T14:46:39;10.47;;;4.80;;
3867;SDS011;1949;48.152;11.528;2024-02-21T14:49:05;2.10;;;1.50;;
3867;SDS011;1949;48.152;11.528;2024-02-21T14:51:31;14.43;;;6.20;;
3867;SDS011;1949;48.152;11.528;2024-02-21T14:53:56;2.07;;;1.73;;
3867;SDS011;1949;48.152;11.528;2024-02-21T14:56:22;1.10;;;0.83;;
3867;SDS011;1949;48.152;11.528;2024-02-21T14:58:48;3.70;;;1.83;;
3867;SDS011;1949;48.152;11.528;2024-02-21T15:01:15;9.90;;;1.80;;
3867;SDS011;1949;48.152;11.528;2024-02-21T15:03:41;2.97;;;1.40;;
3867;SDS011;1949;48.152;11.528;2024-02-21T15:06:08;1.87;;;1.00;;
3867;SDS011;1949;48.152;11.528;2024-02-21T15:08:35;9.90;;;5.10;;
3867;SDS011;1949;48.152;11.528;2024-02-21T15:11:01;14.33;;;3.67;;
3867;SDS011;1949;48.152;11.528;2024-02-21T15:13:28;3.90;;;2.27;;
3867;SDS011;1949;48.152;11.528;2024-02-21T15:15:55;1.80;;;1.33;;
3867;SDS011;1949;48.152;11.528;2024-02-21T15:18:21;1.97;;;1.03;;
3867;SDS011;1949;48.152;11.528;2024-02-21T15:20:47;0.80;;;0.80;;
3867;SDS011;1949;48.152;11.528;2024-02-21T15:23:13;3.27;;;1.70;;
3867;SDS011;1949;48.152;11.528;2024-02-21T15:25:39;11.63;;;3.00;;
3867;SDS011;1949;48.152;11.528;2024-02-21T15:28:05;5.90;;;1.60;;
3867;SDS011;1949;48.152;11.528;2024-02-21T15:30:31;1.63;;;1.10;;
3867;SDS011;1949;48.152;11.528;2024-02-21T15:32:57;5.03;;;2.33;;